Terminal Aerodrome Forecast
Issued by NWS

Home | Current Version | Previous Version | Text Only | Print | Product List | Glossary On
Versions: 1 2 3 4 5 6 7 8 9 10 11 12 13 14 15 16 17 18 19 20 21 22 23 24 25
964
FTUS45 KPSR 301734
TAFIWA
TAF
KIWA 301734Z 3018/3118 14008KT P6SM SKC
     FM302000 21010G18KT P6SM FEW250
     FM302300 23014G24KT P6SM SCT250
      TEMPO 3105/3108 27020G30KT 6SM BLDU
     FM311100 25010KT P6SM FEW070=

USA.gov is the U.S. government's official web portal to all federal, state and local government web resources and services.